sensor_id;sensor_type;location;lat;lon;timestamp;P1;durP1;ratioP1;P2;durP2;ratioP2
9783;SDS011;4931;44.874;-1.092;2023-04-25T00:01:59;5.88;;;2.50;;
9783;SDS011;4931;44.874;-1.092;2023-04-25T00:04:25;4.13;;;2.60;;
9783;SDS011;4931;44.874;-1.092;2023-04-25T00:06:52;3.70;;;2.22;;
9783;SDS011;4931;44.874;-1.092;2023-04-25T00:09:18;4.68;;;3.00;;
9783;SDS011;4931;44.874;-1.092;2023-04-25T00:11:43;5.50;;;3.00;;
9783;SDS011;4931;44.874;-1.092;2023-04-25T00:14:09;5.22;;;3.13;;
9783;SDS011;4931;44.874;-1.092;2023-04-25T00:16:34;5.05;;;3.00;;
9783;SDS011;4931;44.874;-1.092;2023-04-25T00:19:00;4.50;;;2.70;;
9783;SDS011;4931;44.874;-1.092;2023-04-25T00:21:27;5.32;;;3.13;;
9783;SDS011;4931;44.874;-1.092;2023-04-25T00:23:53;5.20;;;3.35;;
9783;SDS011;4931;44.874;-1.092;2023-04-25T00:26:19;5.97;;;2.97;;
9783;SDS011;4931;44.874;-1.092;2023-04-25T00:28:46;5.70;;;3.40;;
9783;SDS011;4931;44.874;-1.092;2023-04-25T00:31:12;8.07;;;4.65;;
9783;SDS011;4931;44.874;-1.092;2023-04-25T00:33:38;5.72;;;4.10;;
9783;SDS011;4931;44.874;-1.092;2023-04-25T00:36:04;4.70;;;3.22;;
9783;SDS011;4931;44.874;-1.092;2023-04-25T00:38:30;5.65;;;3.30;;
9783;SDS011;4931;44.874;-1.092;2023-04-25T00:40:55;5.53;;;3.45;;
9783;SDS011;4931;44.874;-1.092;2023-04-25T00:43:23;6.25;;;3.40;;
9783;SDS011;4931;44.874;-1.092;2023-04-25T00:45:50;7.88;;;3.83;;
9783;SDS011;4931;44.874;-1.092;2023-04-25T00:48:17;6.68;;;3.63;;
9783;SDS011;4931;44.874;-1.092;2023-04-25T00:50:44;7.15;;;3.88;;
9783;SDS011;4931;44.874;-1.092;2023-04-25T00:53:19;4.80;;;3.80;;
9783;SDS011;4931;44.874;-1.092;2023-04-25T00:55:45;7.35;;;4.13;;
9783;SDS011;4931;44.874;-1.092;2023-04-25T00:58:11;11.45;;;4.68;;
9783;SDS011;4931;44.874;-1.092;2023-04-25T01:00:36;8.23;;;4.10;;
9783;SDS011;4931;44.874;-1.092;2023-04-25T01:03:02;5.75;;;4.45;;
9783;SDS011;4931;44.874;-1.092;2023-04-25T01:05:28;8.25;;;5.00;;
9783;SDS011;4931;44.874;-1.092;2023-04-25T01:07:54;6.15;;;3.72;;
9783;SDS011;4931;44.874;-1.092;2023-04-25T01:10:20;6.97;;;4.22;;
9783;SDS011;4931;44.874;-1.092;2023-04-25T01:12:46;6.60;;;4.28;;
9783;SDS011;4931;44.874;-1.092;2023-04-25T01:15:12;9.68;;;6.28;;
9783;SDS011;4931;44.874;-1.092;2023-04-25T01:17:37;6.75;;;4.10;;
9783;SDS011;4931;44.874;-1.092;2023-04-25T01:20:04;6.80;;;4.90;;
9783;SDS011;4931;44.874;-1.092;2023-04-25T01:22:31;6.63;;;5.38;;
9783;SDS011;4931;44.874;-1.092;2023-04-25T01:24:57;6.35;;;4.85;;
9783;SDS011;4931;44.874;-1.092;2023-04-25T01:27:23;8.32;;;5.15;;
9783;SDS011;4931;44.874;-1.092;2023-04-25T01:29:50;8.38;;;5.30;;
9783;SDS011;4931;44.874;-1.092;2023-04-25T01:32:16;7.70;;;4.88;;
9783;SDS011;4931;44.874;-1.092;2023-04-25T01:34:42;8.05;;;5.20;;
9783;SDS011;4931;44.874;-1.092;2023-04-25T01:37:08;8.63;;;5.47;;
9783;SDS011;4931;44.874;-1.092;2023-04-25T01:39:33;9.40;;;6.22;;
9783;SDS011;4931;44.874;-1.092;2023-04-25T01:41:59;8.00;;;5.65;;
9783;SDS011;4931;44.874;-1.092;2023-04-25T01:44:25;10.02;;;5.95;;
9783;SDS011;4931;44.874;-1.092;2023-04-25T01:46:51;8.48;;;5.78;;
9783;SDS011;4931;44.874;-1.092;2023-04-25T01:49:16;10.30;;;6.35;;
9783;SDS011;4931;44.874;-1.092;2023-04-25T01:51:42;10.15;;;6.03;;
9783;SDS011;4931;44.874;-1.092;2023-04-25T01:54:08;9.18;;;6.43;;
9783;SDS011;4931;44.874;-1.092;2023-04-25T01:56:36;9.13;;;6.78;;
9783;SDS011;4931;44.874;-1.092;2023-04-25T01:59:04;10.00;;;6.20;;
9783;SDS011;4931;44.874;-1.092;2023-04-25T02:01:30;11.70;;;7.43;;
9783;SDS011;4931;44.874;-1.092;2023-04-25T02:03:56;13.10;;;7.63;;
9783;SDS011;4931;44.874;-1.092;2023-04-25T02:06:21;12.95;;;7.38;;
9783;SDS011;4931;44.874;-1.092;2023-04-25T02:08:47;13.02;;;7.38;;
9783;SDS011;4931;44.874;-1.092;2023-04-25T02:11:13;12.35;;;7.43;;
9783;SDS011;4931;44.874;-1.092;2023-04-25T02:13:38;11.80;;;6.93;;
9783;SDS011;4931;44.874;-1.092;2023-04-25T02:16:04;12.38;;;7.55;;
9783;SDS011;4931;44.874;-1.092;2023-04-25T02:18:30;13.32;;;7.70;;
9783;SDS011;4931;44.874;-1.092;2023-04-25T02:20:57;10.52;;;6.90;;
9783;SDS011;4931;44.874;-1.092;2023-04-25T02:23:24;11.65;;;6.97;;
9783;SDS011;4931;44.874;-1.092;2023-04-25T02:25:49;12.60;;;6.55;;
9783;SDS011;4931;44.874;-1.092;2023-04-25T02:28:16;8.73;;;5.80;;
9783;SDS011;4931;44.874;-1.092;2023-04-25T02:30:41;9.68;;;6.05;;
9783;SDS011;4931;44.874;-1.092;2023-04-25T02:33:06;10.75;;;5.85;;
9783;SDS011;4931;44.874;-1.092;2023-04-25T02:35:32;10.55;;;5.40;;
9783;SDS011;4931;44.874;-1.092;2023-04-25T02:37:57;8.80;;;5.07;;
9783;SDS011;4931;44.874;-1.092;2023-04-25T02:40:23;8.82;;;4.75;;
9783;SDS011;4931;44.874;-1.092;2023-04-25T02:42:48;8.68;;;4.95;;
9783;SDS011;4931;44.874;-1.092;2023-04-25T02:45:14;9.05;;;5.72;;
9783;SDS011;4931;44.874;-1.092;2023-04-25T02:47:39;8.77;;;5.57;;
9783;SDS011;4931;44.874;-1.092;2023-04-25T02:50:05;10.25;;;5.22;;
9783;SDS011;4931;44.874;-1.092;2023-04-25T02:52:31;10.07;;;5.18;;
9783;SDS011;4931;44.874;-1.092;2023-04-25T02:54:56;9.57;;;5.55;;
9783;SDS011;4931;44.874;-1.092;2023-04-25T02:57:22;10.95;;;5.60;;
9783;SDS011;4931;44.874;-1.092;2023-04-25T02:59:47;12.48;;;5.95;;
9783;SDS011;4931;44.874;-1.092;2023-04-25T03:02:13;11.15;;;5.35;;
9783;SDS011;4931;44.874;-1.092;2023-04-25T03:04:38;10.70;;;5.15;;
9783;SDS011;4931;44.874;-1.092;2023-04-25T03:07:04;7.97;;;5.70;;
9783;SDS011;4931;44.874;-1.092;2023-04-25T03:09:30;8.45;;;5.95;;
9783;SDS011;4931;44.874;-1.092;2023-04-25T03:11:55;10.98;;;6.00;;
9783;SDS011;4931;44.874;-1.092;2023-04-25T03:14:21;12.18;;;6.15;;
9783;SDS011;4931;44.874;-1.092;2023-04-25T03:16:46;11.98;;;5.53;;
9783;SDS011;4931;44.874;-1.092;2023-04-25T03:19:12;9.77;;;6.28;;
9783;SDS011;4931;44.874;-1.092;2023-04-25T03:21:37;11.30;;;6.53;;
9783;SDS011;4931;44.874;-1.092;2023-04-25T03:24:03;15.20;;;6.82;;
9783;SDS011;4931;44.874;-1.092;2023-04-25T03:26:29;12.30;;;7.05;;
9783;SDS011;4931;44.874;-1.092;2023-04-25T03:28:55;13.43;;;7.13;;
9783;SDS011;4931;44.874;-1.092;2023-04-25T03:31:21;12.05;;;6.15;;
9783;SDS011;4931;44.874;-1.092;2023-04-25T03:33:47;12.75;;;6.93;;
9783;SDS011;4931;44.874;-1.092;2023-04-25T03:36:12;8.95;;;5.53;;
9783;SDS011;4931;44.874;-1.092;2023-04-25T03:38:38;9.25;;;5.57;;
9783;SDS011;4931;44.874;-1.092;2023-04-25T03:41:03;9.13;;;5.38;;
9783;SDS011;4931;44.874;-1.092;2023-04-25T03:43:29;8.73;;;5.40;;
9783;SDS011;4931;44.874;-1.092;2023-04-25T03:45:54;11.70;;;6.22;;
9783;SDS011;4931;44.874;-1.092;2023-04-25T03:48:20;8.75;;;5.47;;
9783;SDS011;4931;44.874;-1.092;2023-04-25T03:50:51;8.25;;;5.53;;
9783;SDS011;4931;44.874;-1.092;2023-04-25T03:53:17;8.23;;;5.50;;
9783;SDS011;4931;44.874;-1.092;2023-04-25T03:55:42;9.48;;;5.47;;
9783;SDS011;4931;44.874;-1.092;2023-04-25T03:58:08;9.45;;;5.20;;
9783;SDS011;4931;44.874;-1.092;2023-04-25T04:00:34;7.70;;;5.00;;
9783;SDS011;4931;44.874;-1.092;2023-04-25T04:03:00;6.60;;;4.72;;
9783;SDS011;4931;44.874;-1.092;2023-04-25T04:05:25;7.07;;;5.03;;
9783;SDS011;4931;44.874;-1.092;2023-04-25T04:07:52;8.60;;;5.30;;
9783;SDS011;4931;44.874;-1.092;2023-04-25T04:10:18;8.88;;;5.63;;
9783;SDS011;4931;44.874;-1.092;2023-04-25T04:12:43;7.70;;;5.10;;
9783;SDS011;4931;44.874;-1.092;2023-04-25T04:15:09;6.78;;;5.28;;
9783;SDS011;4931;44.874;-1.092;2023-04-25T04:17:35;7.10;;;4.82;;
9783;SDS011;4931;44.874;-1.092;2023-04-25T04:20:01;7.18;;;5.03;;
9783;SDS011;4931;44.874;-1.092;2023-04-25T04:22:26;8.57;;;4.90;;
9783;SDS011;4931;44.874;-1.092;2023-04-25T04:24:52;6.55;;;4.68;;
9783;SDS011;4931;44.874;-1.092;2023-04-25T04:27:18;7.30;;;5.18;;
9783;SDS011;4931;44.874;-1.092;2023-04-25T04:29:44;7.57;;;5.20;;
9783;SDS011;4931;44.874;-1.092;2023-04-25T04:32:10;9.63;;;5.65;;
9783;SDS011;4931;44.874;-1.092;2023-04-25T04:34:37;6.32;;;4.38;;
9783;SDS011;4931;44.874;-1.092;2023-04-25T04:37:04;8.25;;;5.10;;
9783;SDS011;4931;44.874;-1.092;2023-04-25T04:39:32;5.65;;;4.70;;
9783;SDS011;4931;44.874;-1.092;2023-04-25T04:41:58;8.30;;;5.03;;
9783;SDS011;4931;44.874;-1.092;2023-04-25T04:44:24;6.45;;;4.82;;
9783;SDS011;4931;44.874;-1.092;2023-04-25T04:46:50;5.60;;;4.57;;
9783;SDS011;4931;44.874;-1.092;2023-04-25T04:49:15;7.85;;;5.13;;
9783;SDS011;4931;44.874;-1.092;2023-04-25T04:51:41;7.75;;;4.20;;
9783;SDS011;4931;44.874;-1.092;2023-04-25T04:54:09;6.18;;;3.90;;
9783;SDS011;4931;44.874;-1.092;2023-04-25T04:56:34;6.07;;;4.38;;
9783;SDS011;4931;44.874;-1.092;2023-04-25T04:59:00;6.45;;;4.65;;
9783;SDS011;4931;44.874;-1.092;2023-04-25T05:01:27;5.95;;;4.47;;
9783;SDS011;4931;44.874;-1.092;2023-04-25T05:03:54;6.45;;;4.65;;
9783;SDS011;4931;44.874;-1.092;2023-04-25T05:06:25;6.03;;;4.85;;
9783;SDS011;4931;44.874;-1.092;2023-04-25T05:08:51;7.40;;;5.30;;
9783;SDS011;4931;44.874;-1.092;2023-04-25T05:11:17;9.60;;;6.75;;
9783;SDS011;4931;44.874;-1.092;2023-04-25T05:13:43;6.57;;;4.85;;
9783;SDS011;4931;44.874;-1.092;2023-04-25T05:16:09;6.40;;;5.03;;
9783;SDS011;4931;44.874;-1.092;2023-04-25T05:18:35;6.75;;;5.03;;
9783;SDS011;4931;44.874;-1.092;2023-04-25T05:21:01;8.73;;;5.00;;
9783;SDS011;4931;44.874;-1.092;2023-04-25T05:23:26;7.00;;;5.10;;
9783;SDS011;4931;44.874;-1.092;2023-04-25T05:25:52;8.52;;;5.35;;
9783;SDS011;4931;44.874;-1.092;2023-04-25T05:28:18;8.40;;;5.75;;
9783;SDS011;4931;44.874;-1.092;2023-04-25T05:30:43;7.55;;;5.47;;
9783;SDS011;4931;44.874;-1.092;2023-04-25T05:33:09;8.60;;;5.65;;
9783;SDS011;4931;44.874;-1.092;2023-04-25T05:35:34;7.68;;;5.60;;
9783;SDS011;4931;44.874;-1.092;2023-04-25T05:38:00;7.95;;;5.57;;
9783;SDS011;4931;44.874;-1.092;2023-04-25T05:40:25;9.07;;;5.70;;
9783;SDS011;4931;44.874;-1.092;2023-04-25T05:42:51;9.00;;;5.57;;
9783;SDS011;4931;44.874;-1.092;2023-04-25T05:45:16;8.57;;;6.28;;
9783;SDS011;4931;44.874;-1.092;2023-04-25T05:47:42;9.52;;;6.13;;
9783;SDS011;4931;44.874;-1.092;2023-04-25T05:50:08;8.43;;;5.65;;
9783;SDS011;4931;44.874;-1.092;2023-04-25T05:52:33;6.63;;;5.88;;
9783;SDS011;4931;44.874;-1.092;2023-04-25T05:54:59;8.68;;;5.75;;
9783;SDS011;4931;44.874;-1.092;2023-04-25T05:57:25;7.63;;;5.63;;
9783;SDS011;4931;44.874;-1.092;2023-04-25T05:59:52;7.47;;;5.80;;
9783;SDS011;4931;44.874;-1.092;2023-04-25T06:02:18;7.15;;;5.45;;
9783;SDS011;4931;44.874;-1.092;2023-04-25T06:04:48;6.35;;;5.20;;
9783;SDS011;4931;44.874;-1.092;2023-04-25T06:07:14;7.43;;;5.38;;
9783;SDS011;4931;44.874;-1.092;2023-04-25T06:09:40;11.10;;;5.63;;
9783;SDS011;4931;44.874;-1.092;2023-04-25T06:12:06;7.72;;;6.10;;
9783;SDS011;4931;44.874;-1.092;2023-04-25T06:14:32;8.18;;;5.85;;
9783;SDS011;4931;44.874;-1.092;2023-04-25T06:16:59;7.32;;;5.28;;
9783;SDS011;4931;44.874;-1.092;2023-04-25T06:19:24;10.38;;;6.10;;
9783;SDS011;4931;44.874;-1.092;2023-04-25T06:21:50;11.05;;;8.27;;
9783;SDS011;4931;44.874;-1.092;2023-04-25T06:24:15;12.48;;;9.18;;
9783;SDS011;4931;44.874;-1.092;2023-04-25T06:26:41;14.48;;;10.63;;
9783;SDS011;4931;44.874;-1.092;2023-04-25T06:29:06;11.43;;;7.15;;
9783;SDS011;4931;44.874;-1.092;2023-04-25T06:31:32;10.10;;;7.30;;
9783;SDS011;4931;44.874;-1.092;2023-04-25T06:33:58;10.18;;;7.00;;
9783;SDS011;4931;44.874;-1.092;2023-04-25T06:36:24;12.55;;;9.60;;
9783;SDS011;4931;44.874;-1.092;2023-04-25T06:38:51;11.23;;;8.02;;
9783;SDS011;4931;44.874;-1.092;2023-04-25T06:41:20;8.15;;;5.95;;
9783;SDS011;4931;44.874;-1.092;2023-04-25T06:43:45;7.18;;;5.65;;
9783;SDS011;4931;44.874;-1.092;2023-04-25T06:46:11;8.57;;;5.97;;
9783;SDS011;4931;44.874;-1.092;2023-04-25T06:48:37;8.10;;;5.70;;
9783;SDS011;4931;44.874;-1.092;2023-04-25T06:51:02;9.38;;;5.80;;
9783;SDS011;4931;44.874;-1.092;2023-04-25T06:53:28;6.80;;;5.50;;
9783;SDS011;4931;44.874;-1.092;2023-04-25T06:55:54;8.27;;;6.05;;
9783;SDS011;4931;44.874;-1.092;2023-04-25T06:58:19;10.18;;;6.30;;
9783;SDS011;4931;44.874;-1.092;2023-04-25T07:00:45;8.93;;;5.65;;
9783;SDS011;4931;44.874;-1.092;2023-04-25T07:03:10;9.88;;;6.78;;
9783;SDS011;4931;44.874;-1.092;2023-04-25T07:05:36;7.25;;;5.32;;
9783;SDS011;4931;44.874;-1.092;2023-04-25T07:08:02;8.40;;;5.28;;
9783;SDS011;4931;44.874;-1.092;2023-04-25T07:10:28;8.10;;;5.68;;
9783;SDS011;4931;44.874;-1.092;2023-04-25T07:12:53;8.45;;;5.22;;
9783;SDS011;4931;44.874;-1.092;2023-04-25T07:15:19;9.13;;;5.50;;
9783;SDS011;4931;44.874;-1.092;2023-04-25T07:17:44;8.60;;;5.10;;
9783;SDS011;4931;44.874;-1.092;2023-04-25T07:20:10;9.25;;;5.80;;
9783;SDS011;4931;44.874;-1.092;2023-04-25T07:22:36;10.15;;;5.78;;
9783;SDS011;4931;44.874;-1.092;2023-04-25T07:25:01;8.48;;;5.88;;
9783;SDS011;4931;44.874;-1.092;2023-04-25T07:27:29;8.27;;;5.20;;
9783;SDS011;4931;44.874;-1.092;2023-04-25T07:29:54;9.55;;;5.95;;
9783;SDS011;4931;44.874;-1.092;2023-04-25T07:32:20;8.98;;;5.78;;
9783;SDS011;4931;44.874;-1.092;2023-04-25T07:34:45;8.35;;;5.47;;
9783;SDS011;4931;44.874;-1.092;2023-04-25T07:37:11;7.63;;;5.40;;
9783;SDS011;4931;44.874;-1.092;2023-04-25T07:39:36;10.75;;;5.38;;
9783;SDS011;4931;44.874;-1.092;2023-04-25T07:42:02;9.15;;;5.15;;
9783;SDS011;4931;44.874;-1.092;2023-04-25T07:44:29;9.43;;;5.65;;
9783;SDS011;4931;44.874;-1.092;2023-04-25T07:46:55;8.27;;;5.80;;
9783;SDS011;4931;44.874;-1.092;2023-04-25T07:49:21;9.88;;;5.88;;
9783;SDS011;4931;44.874;-1.092;2023-04-25T07:51:46;9.18;;;6.07;;
9783;SDS011;4931;44.874;-1.092;2023-04-25T07:54:13;10.20;;;5.72;;
9783;SDS011;4931;44.874;-1.092;2023-04-25T07:56:39;9.63;;;5.40;;
9783;SDS011;4931;44.874;-1.092;2023-04-25T07:59:05;7.78;;;5.40;;
9783;SDS011;4931;44.874;-1.092;2023-04-25T08:01:30;10.13;;;5.57;;
9783;SDS011;4931;44.874;-1.092;2023-04-25T08:03:56;10.00;;;5.97;;
9783;SDS011;4931;44.874;-1.092;2023-04-25T08:06:21;11.93;;;5.90;;
9783;SDS011;4931;44.874;-1.092;2023-04-25T08:08:47;10.63;;;5.65;;
9783;SDS011;4931;44.874;-1.092;2023-04-25T08:11:13;11.00;;;7.25;;
9783;SDS011;4931;44.874;-1.092;2023-04-25T08:13:38;8.20;;;5.45;;
9783;SDS011;4931;44.874;-1.092;2023-04-25T08:16:04;11.35;;;5.43;;
9783;SDS011;4931;44.874;-1.092;2023-04-25T08:18:29;9.65;;;5.32;;
9783;SDS011;4931;44.874;-1.092;2023-04-25T08:20:55;9.00;;;5.25;;
9783;SDS011;4931;44.874;-1.092;2023-04-25T08:23:21;14.82;;;6.47;;
9783;SDS011;4931;44.874;-1.092;2023-04-25T08:25:47;11.38;;;6.20;;
9783;SDS011;4931;44.874;-1.092;2023-04-25T08:28:12;9.43;;;6.50;;
9783;SDS011;4931;44.874;-1.092;2023-04-25T08:30:38;10.45;;;6.80;;
9783;SDS011;4931;44.874;-1.092;2023-04-25T08:33:03;13.18;;;6.68;;
9783;SDS011;4931;44.874;-1.092;2023-04-25T08:35:28;11.25;;;6.38;;
9783;SDS011;4931;44.874;-1.092;2023-04-25T08:37:54;9.38;;;6.10;;
9783;SDS011;4931;44.874;-1.092;2023-04-25T08:40:20;10.82;;;6.20;;
9783;SDS011;4931;44.874;-1.092;2023-04-25T08:45:18;9.10;;;6.05;;
9783;SDS011;4931;44.874;-1.092;2023-04-25T08:47:43;9.23;;;6.20;;
9783;SDS011;4931;44.874;-1.092;2023-04-25T08:50:10;9.55;;;5.30;;
9783;SDS011;4931;44.874;-1.092;2023-04-25T08:52:37;7.72;;;5.18;;
9783;SDS011;4931;44.874;-1.092;2023-04-25T08:55:08;10.15;;;6.13;;
9783;SDS011;4931;44.874;-1.092;2023-04-25T08:57:34;11.50;;;5.93;;
9783;SDS011;4931;44.874;-1.092;2023-04-25T09:00:00;10.88;;;6.90;;
9783;SDS011;4931;44.874;-1.092;2023-04-25T09:02:26;10.32;;;6.00;;
9783;SDS011;4931;44.874;-1.092;2023-04-25T09:04:52;9.43;;;6.05;;
9783;SDS011;4931;44.874;-1.092;2023-04-25T09:07:19;10.40;;;6.85;;
9783;SDS011;4931;44.874;-1.092;2023-04-25T09:09:46;11.50;;;6.20;;
9783;SDS011;4931;44.874;-1.092;2023-04-25T09:12:11;9.43;;;6.25;;
9783;SDS011;4931;44.874;-1.092;2023-04-25T09:14:37;10.38;;;6.90;;
9783;SDS011;4931;44.874;-1.092;2023-04-25T09:17:03;8.30;;;5.60;;
9783;SDS011;4931;44.874;-1.092;2023-04-25T09:19:33;10.77;;;5.75;;
9783;SDS011;4931;44.874;-1.092;2023-04-25T09:22:01;10.82;;;5.97;;
9783;SDS011;4931;44.874;-1.092;2023-04-25T09:27:04;10.63;;;6.20;;
9783;SDS011;4931;44.874;-1.092;2023-04-25T09:29:35;9.70;;;6.20;;
9783;SDS011;4931;44.874;-1.092;2023-04-25T09:32:15;12.40;;;6.90;;
9783;SDS011;4931;44.874;-1.092;2023-04-25T09:34:43;11.05;;;6.70;;
9783;SDS011;4931;44.874;-1.092;2023-04-25T09:37:16;12.23;;;7.10;;
9783;SDS011;4931;44.874;-1.092;2023-04-25T09:39:57;15.68;;;10.00;;
9783;SDS011;4931;44.874;-1.092;2023-04-25T09:42:26;11.95;;;7.63;;
9783;SDS011;4931;44.874;-1.092;2023-04-25T09:44:54;12.25;;;7.60;;
9783;SDS011;4931;44.874;-1.092;2023-04-25T09:47:20;14.18;;;7.82;;
9783;SDS011;4931;44.874;-1.092;2023-04-25T09:49:49;11.73;;;8.02;;
9783;SDS011;4931;44.874;-1.092;2023-04-25T09:52:16;12.00;;;7.35;;
9783;SDS011;4931;44.874;-1.092;2023-04-25T09:54:46;11.68;;;7.80;;
9783;SDS011;4931;44.874;-1.092;2023-04-25T09:57:14;11.88;;;8.30;;
9783;SDS011;4931;44.874;-1.092;2023-04-25T09:59:45;12.73;;;8.20;;
9783;SDS011;4931;44.874;-1.092;2023-04-25T10:02:11;11.10;;;8.18;;
9783;SDS011;4931;44.874;-1.092;2023-04-25T10:04:38;12.45;;;7.60;;
9783;SDS011;4931;44.874;-1.092;2023-04-25T10:07:07;9.77;;;6.25;;
9783;SDS011;4931;44.874;-1.092;2023-04-25T10:09:36;12.35;;;7.20;;
9783;SDS011;4931;44.874;-1.092;2023-04-25T10:12:03;10.10;;;6.82;;
9783;SDS011;4931;44.874;-1.092;2023-04-25T10:14:31;12.90;;;7.55;;
9783;SDS011;4931;44.874;-1.092;2023-04-25T10:17:00;9.25;;;7.18;;
9783;SDS011;4931;44.874;-1.092;2023-04-25T10:19:26;10.20;;;7.50;;
9783;SDS011;4931;44.874;-1.092;2023-04-25T10:21:58;11.02;;;7.38;;
9783;SDS011;4931;44.874;-1.092;2023-04-25T10:24:31;14.90;;;8.10;;
9783;SDS011;4931;44.874;-1.092;2023-04-25T10:26:57;13.27;;;7.20;;
9783;SDS011;4931;44.874;-1.092;2023-04-25T10:29:23;12.15;;;6.85;;
9783;SDS011;4931;44.874;-1.092;2023-04-25T10:31:50;10.43;;;6.72;;
9783;SDS011;4931;44.874;-1.092;2023-04-25T10:34:16;12.23;;;7.18;;
9783;SDS011;4931;44.874;-1.092;2023-04-25T10:36:42;10.70;;;6.72;;
9783;SDS011;4931;44.874;-1.092;2023-04-25T10:39:13;11.60;;;6.82;;
9783;SDS011;4931;44.874;-1.092;2023-04-25T10:41:51;16.60;;;8.40;;
9783;SDS011;4931;44.874;-1.092;2023-04-25T10:44:27;12.77;;;7.50;;
9783;SDS011;4931;44.874;-1.092;2023-04-25T10:46:56;11.63;;;7.70;;
9783;SDS011;4931;44.874;-1.092;2023-04-25T10:49:33;11.98;;;8.45;;
9783;SDS011;4931;44.874;-1.092;2023-04-25T10:54:48;9.75;;;7.20;;
9783;SDS011;4931;44.874;-1.092;2023-04-25T10:59:59;9.38;;;7.10;;
9783;SDS011;4931;44.874;-1.092;2023-04-25T11:02:53;11.88;;;6.03;;
9783;SDS011;4931;44.874;-1.092;2023-04-25T11:05:31;12.07;;;5.88;;
9783;SDS011;4931;44.874;-1.092;2023-04-25T11:07:59;11.25;;;7.53;;
9783;SDS011;4931;44.874;-1.092;2023-04-25T11:10:28;11.00;;;6.88;;
9783;SDS011;4931;44.874;-1.092;2023-04-25T11:12:58;11.18;;;7.70;;
9783;SDS011;4931;44.874;-1.092;2023-04-25T11:15:25;13.60;;;7.78;;
9783;SDS011;4931;44.874;-1.092;2023-04-25T11:17:51;9.93;;;7.03;;
9783;SDS011;4931;44.874;-1.092;2023-04-25T11:20:17;13.43;;;7.22;;
9783;SDS011;4931;44.874;-1.092;2023-04-25T11:22:46;13.27;;;7.05;;
9783;SDS011;4931;44.874;-1.092;2023-04-25T11:25:13;9.00;;;5.50;;
9783;SDS011;4931;44.874;-1.092;2023-04-25T11:27:52;11.38;;;6.85;;
9783;SDS011;4931;44.874;-1.092;2023-04-25T11:30:19;11.10;;;6.18;;
9783;SDS011;4931;44.874;-1.092;2023-04-25T11:32:46;8.88;;;5.47;;
9783;SDS011;4931;44.874;-1.092;2023-04-25T11:35:12;9.10;;;5.18;;
9783;SDS011;4931;44.874;-1.092;2023-04-25T11:37:41;10.43;;;5.15;;
9783;SDS011;4931;44.874;-1.092;2023-04-25T11:40:08;8.55;;;5.32;;
9783;SDS011;4931;44.874;-1.092;2023-04-25T11:42:37;9.05;;;5.95;;
9783;SDS011;4931;44.874;-1.092;2023-04-25T11:45:05;9.48;;;5.72;;
9783;SDS011;4931;44.874;-1.092;2023-04-25T11:47:32;9.77;;;5.72;;
9783;SDS011;4931;44.874;-1.092;2023-04-25T11:50:01;10.52;;;5.30;;
9783;SDS011;4931;44.874;-1.092;2023-04-25T11:52:41;8.43;;;4.87;;
9783;SDS011;4931;44.874;-1.092;2023-04-25T11:55:08;6.40;;;4.30;;
9783;SDS011;4931;44.874;-1.092;2023-04-25T11:57:38;7.03;;;4.53;;
9783;SDS011;4931;44.874;-1.092;2023-04-25T12:00:08;7.65;;;4.85;;
9783;SDS011;4931;44.874;-1.092;2023-04-25T12:02:41;6.28;;;4.63;;
9783;SDS011;4931;44.874;-1.092;2023-04-25T12:05:12;8.85;;;5.10;;
9783;SDS011;4931;44.874;-1.092;2023-04-25T12:07:40;11.75;;;5.88;;
9783;SDS011;4931;44.874;-1.092;2023-04-25T12:10:10;7.20;;;4.40;;
9783;SDS011;4931;44.874;-1.092;2023-04-25T12:15:16;9.95;;;5.60;;
9783;SDS011;4931;44.874;-1.092;2023-04-25T12:17:45;9.18;;;5.45;;
9783;SDS011;4931;44.874;-1.092;2023-04-25T12:20:15;9.38;;;5.50;;
9783;SDS011;4931;44.874;-1.092;2023-04-25T12:22:44;9.60;;;5.38;;
9783;SDS011;4931;44.874;-1.092;2023-04-25T12:25:44;8.40;;;4.95;;
9783;SDS011;4931;44.874;-1.092;2023-04-25T12:31:01;13.02;;;4.90;;
9783;SDS011;4931;44.874;-1.092;2023-04-25T12:33:32;10.50;;;4.90;;
9783;SDS011;4931;44.874;-1.092;2023-04-25T12:36:03;7.50;;;5.60;;
9783;SDS011;4931;44.874;-1.092;2023-04-25T12:38:35;7.07;;;4.90;;
9783;SDS011;4931;44.874;-1.092;2023-04-25T12:41:05;7.53;;;4.57;;
9783;SDS011;4931;44.874;-1.092;2023-04-25T12:43:31;8.13;;;5.03;;
9783;SDS011;4931;44.874;-1.092;2023-04-25T12:45:57;7.55;;;5.25;;
9783;SDS011;4931;44.874;-1.092;2023-04-25T12:48:22;10.38;;;4.93;;
9783;SDS011;4931;44.874;-1.092;2023-04-25T12:50:49;9.52;;;6.32;;
9783;SDS011;4931;44.874;-1.092;2023-04-25T12:53:19;8.02;;;5.55;;
9783;SDS011;4931;44.874;-1.092;2023-04-25T12:55:46;9.63;;;6.03;;
9783;SDS011;4931;44.874;-1.092;2023-04-25T12:58:15;9.95;;;5.60;;
9783;SDS011;4931;44.874;-1.092;2023-04-25T13:00:42;7.85;;;5.18;;
9783;SDS011;4931;44.874;-1.092;2023-04-25T13:03:08;7.50;;;5.40;;
9783;SDS011;4931;44.874;-1.092;2023-04-25T13:05:36;11.73;;;5.22;;
9783;SDS011;4931;44.874;-1.092;2023-04-25T13:08:02;9.05;;;5.05;;
9783;SDS011;4931;44.874;-1.092;2023-04-25T13:10:27;8.93;;;5.25;;
9783;SDS011;4931;44.874;-1.092;2023-04-25T13:12:53;7.10;;;5.10;;
9783;SDS011;4931;44.874;-1.092;2023-04-25T13:15:18;5.80;;;4.95;;
9783;SDS011;4931;44.874;-1.092;2023-04-25T13:17:44;5.78;;;4.47;;
9783;SDS011;4931;44.874;-1.092;2023-04-25T13:20:10;7.90;;;5.22;;
9783;SDS011;4931;44.874;-1.092;2023-04-25T13:22:37;8.65;;;5.65;;
9783;SDS011;4931;44.874;-1.092;2023-04-25T13:25:03;7.57;;;5.38;;
9783;SDS011;4931;44.874;-1.092;2023-04-25T13:27:30;11.23;;;6.20;;
9783;SDS011;4931;44.874;-1.092;2023-04-25T13:29:57;8.77;;;5.60;;
9783;SDS011;4931;44.874;-1.092;2023-04-25T13:32:23;11.80;;;5.55;;
9783;SDS011;4931;44.874;-1.092;2023-04-25T13:34:49;8.73;;;5.65;;
9783;SDS011;4931;44.874;-1.092;2023-04-25T13:37:14;8.95;;;5.13;;
9783;SDS011;4931;44.874;-1.092;2023-04-25T13:39:40;9.95;;;5.68;;
9783;SDS011;4931;44.874;-1.092;2023-04-25T13:42:06;11.38;;;5.97;;
9783;SDS011;4931;44.874;-1.092;2023-04-25T13:44:31;8.77;;;5.80;;
9783;SDS011;4931;44.874;-1.092;2023-04-25T13:46:56;8.00;;;5.35;;
9783;SDS011;4931;44.874;-1.092;2023-04-25T13:49:22;6.40;;;5.13;;
9783;SDS011;4931;44.874;-1.092;2023-04-25T13:51:48;7.78;;;5.22;;
9783;SDS011;4931;44.874;-1.092;2023-04-25T13:54:13;8.45;;;5.53;;
9783;SDS011;4931;44.874;-1.092;2023-04-25T13:56:39;9.05;;;5.57;;
9783;SDS011;4931;44.874;-1.092;2023-04-25T13:59:07;11.68;;;5.07;;
9783;SDS011;4931;44.874;-1.092;2023-04-25T14:01:32;5.68;;;4.78;;
9783;SDS011;4931;44.874;-1.092;2023-04-25T14:04:00;14.85;;;9.00;;
9783;SDS011;4931;44.874;-1.092;2023-04-25T14:06:26;8.50;;;5.07;;
9783;SDS011;4931;44.874;-1.092;2023-04-25T14:08:52;8.35;;;5.20;;
9783;SDS011;4931;44.874;-1.092;2023-04-25T14:11:19;8.10;;;4.80;;
9783;SDS011;4931;44.874;-1.092;2023-04-25T14:13:44;8.57;;;4.80;;
9783;SDS011;4931;44.874;-1.092;2023-04-25T14:16:10;10.00;;;4.78;;
9783;SDS011;4931;44.874;-1.092;2023-04-25T14:18:36;7.65;;;5.15;;
9783;SDS011;4931;44.874;-1.092;2023-04-25T14:21:01;8.35;;;5.50;;
9783;SDS011;4931;44.874;-1.092;2023-04-25T14:23:27;7.63;;;4.80;;
9783;SDS011;4931;44.874;-1.092;2023-04-25T14:25:52;6.70;;;4.55;;
9783;SDS011;4931;44.874;-1.092;2023-04-25T14:28:18;6.53;;;4.68;;
9783;SDS011;4931;44.874;-1.092;2023-04-25T14:30:44;7.18;;;4.60;;
9783;SDS011;4931;44.874;-1.092;2023-04-25T14:33:10;8.00;;;5.53;;
9783;SDS011;4931;44.874;-1.092;2023-04-25T14:35:36;7.40;;;4.47;;
9783;SDS011;4931;44.874;-1.092;2023-04-25T14:38:02;7.20;;;4.95;;
9783;SDS011;4931;44.874;-1.092;2023-04-25T14:40:27;6.32;;;4.75;;
9783;SDS011;4931;44.874;-1.092;2023-04-25T14:42:53;8.82;;;5.53;;
9783;SDS011;4931;44.874;-1.092;2023-04-25T14:45:18;12.90;;;7.20;;
9783;SDS011;4931;44.874;-1.092;2023-04-25T14:47:44;11.75;;;6.38;;
9783;SDS011;4931;44.874;-1.092;2023-04-25T14:50:10;11.02;;;6.20;;
9783;SDS011;4931;44.874;-1.092;2023-04-25T14:52:35;6.82;;;4.80;;
9783;SDS011;4931;44.874;-1.092;2023-04-25T14:55:01;9.55;;;5.88;;
9783;SDS011;4931;44.874;-1.092;2023-04-25T14:57:33;13.10;;;7.40;;
9783;SDS011;4931;44.874;-1.092;2023-04-25T14:59:59;10.43;;;6.38;;
9783;SDS011;4931;44.874;-1.092;2023-04-25T15:02:25;6.95;;;5.10;;
9783;SDS011;4931;44.874;-1.092;2023-04-25T15:04:51;6.13;;;4.00;;
9783;SDS011;4931;44.874;-1.092;2023-04-25T15:07:17;7.80;;;4.80;;
9783;SDS011;4931;44.874;-1.092;2023-04-25T15:09:43;8.25;;;4.40;;